createdAt,value
2023-05-03T00:00:16.331Z,57.50
2023-05-03T00:02:45.537Z,57.50
2023-05-03T00:05:15.124Z,57.50
2023-05-03T00:07:45.861Z,57.90
2023-05-03T00:10:16.569Z,57.50
2023-05-03T00:12:45.881Z,57.50
2023-05-03T00:15:16.658Z,57.40
2023-05-03T00:17:46.003Z,57.60
2023-05-03T00:20:15.495Z,57.70
2023-05-03T00:22:44.959Z,57.70
2023-05-03T00:25:15.436Z,57.60
2023-05-03T00:27:44.691Z,57.60
2023-05-03T00:30:16.179Z,57.60
2023-05-03T00:32:45.375Z,57.60
2023-05-03T00:35:14.987Z,57.70
2023-05-03T00:37:43.961Z,57.70
2023-05-03T00:40:17.367Z,57.60
2023-05-03T00:42:47.185Z,57.60
2023-05-03T00:45:17.649Z,57.40
2023-05-03T00:47:47.261Z,57.40
2023-05-03T00:50:16.723Z,57.40
2023-05-03T00:52:47.074Z,57.20
2023-05-03T00:55:16.968Z,57.20
2023-05-03T00:57:46.310Z,57.30
2023-05-03T01:00:17.953Z,57.20
2023-05-03T01:02:47.276Z,57.20
2023-05-03T01:05:16.890Z,57.30
2023-05-03T01:07:56.227Z,57.30
2023-05-03T01:10:33.379Z,57.40
2023-05-03T01:13:12.506Z,57.30
2023-05-03T01:15:51.789Z,57.30
2023-05-03T01:18:24.530Z,57.40
2023-05-03T01:20:54.791Z,57.30
2023-05-03T01:23:31.828Z,57.50
2023-05-03T01:26:16.396Z,57.50
2023-05-03T01:28:45.532Z,57.40
2023-05-03T01:31:18.842Z,57.40
2023-05-03T01:34:00.965Z,57.40
2023-05-03T01:36:33.288Z,57.40
2023-05-03T01:39:07.633Z,57.50
2023-05-03T01:41:42.721Z,57.60
2023-05-03T01:44:13.273Z,57.70
2023-05-03T01:46:45.428Z,57.70
2023-05-03T01:49:14.917Z,57.70
2023-05-03T01:51:43.986Z,57.70
2023-05-03T01:54:13.530Z,57.80
2023-05-03T01:56:43.840Z,57.90
2023-05-03T01:59:12.908Z,57.90
2023-05-03T02:01:42.171Z,57.90
2023-05-03T02:04:11.985Z,58.00
2023-05-03T02:06:41.176Z,58.10
2023-05-03T02:09:10.556Z,58.10
2023-05-03T02:11:39.959Z,58.10
2023-05-03T02:14:10.489Z,58.30
2023-05-03T02:16:39.969Z,58.50
2023-05-03T02:19:09.040Z,58.60
2023-05-03T02:21:39.010Z,58.60
2023-05-03T02:24:08.383Z,58.60
2023-05-03T02:26:37.472Z,58.60
2023-05-03T02:29:07.417Z,58.60
2023-05-03T02:31:38.027Z,58.70
2023-05-03T02:34:07.678Z,58.80
2023-05-03T02:36:36.802Z,58.90
2023-05-03T02:39:06.293Z,59.00
2023-05-03T02:41:36.033Z,59.10
2023-05-03T02:44:06.136Z,59.20
2023-05-03T02:46:35.587Z,59.10
2023-05-03T02:49:05.996Z,59.30
2023-05-03T02:51:35.712Z,59.30
2023-05-03T02:54:04.912Z,59.40
2023-05-03T02:56:34.550Z,59.40
2023-05-03T02:59:03.969Z,59.50
2023-05-03T03:01:35.106Z,59.60
2023-05-03T03:04:07.181Z,59.20
2023-05-03T03:06:36.369Z,58.90
2023-05-03T03:09:05.947Z,58.90
2023-05-03T03:11:35.280Z,58.90
2023-05-03T03:14:04.473Z,59.00
2023-05-03T03:16:33.482Z,59.30
2023-05-03T03:19:02.686Z,59.40
2023-05-03T03:21:33.523Z,59.60
2023-05-03T03:24:03.647Z,59.50
2023-05-03T03:26:32.989Z,59.60
2023-05-03T03:29:02.739Z,59.60
2023-05-03T03:31:32.112Z,59.80
2023-05-03T03:34:01.181Z,59.80
2023-05-03T03:36:33.474Z,59.80
2023-05-03T03:39:04.063Z,59.80
2023-05-03T03:41:34.119Z,59.90
2023-05-03T03:44:04.292Z,60.00
2023-05-03T03:46:33.455Z,60.00
2023-05-03T03:49:03.429Z,60.00
2023-05-03T03:51:34.831Z,60.20
2023-05-03T03:54:04.286Z,60.30
2023-05-03T03:56:37.847Z,60.30
2023-05-03T03:59:08.140Z,60.30
2023-05-03T04:01:37.948Z,60.40
2023-05-03T04:04:08.245Z,60.40
2023-05-03T04:06:40.079Z,60.50
2023-05-03T04:09:18.083Z,60.40
2023-05-03T04:11:48.022Z,59.80
2023-05-03T04:14:17.265Z,59.50
2023-05-03T04:16:47.628Z,59.40
2023-05-03T04:19:19.271Z,59.50
2023-05-03T04:21:50.293Z,59.60
2023-05-03T04:24:22.030Z,59.80
2023-05-03T04:26:52.401Z,59.70
2023-05-03T04:29:28.972Z,59.60
2023-05-03T04:31:58.393Z,59.40
2023-05-03T04:34:27.780Z,59.10
2023-05-03T04:37:00.581Z,59.00
2023-05-03T04:39:30.292Z,58.90
2023-05-03T04:42:01.344Z,58.90
2023-05-03T04:44:30.516Z,58.90
2023-05-03T04:47:00.752Z,58.80
2023-05-03T04:49:33.025Z,58.80
2023-05-03T04:52:04.022Z,58.80
2023-05-03T04:54:34.472Z,58.90
2023-05-03T04:57:03.929Z,58.70
2023-05-03T04:59:33.482Z,58.70
2023-05-03T05:02:03.077Z,58.80
2023-05-03T05:04:32.271Z,58.80
2023-05-03T05:07:04.029Z,58.60
2023-05-03T05:09:35.488Z,58.40
2023-05-03T05:12:06.128Z,58.30
2023-05-03T05:14:40.555Z,58.20
2023-05-03T05:17:10.969Z,58.20
2023-05-03T05:19:40.592Z,58.10
2023-05-03T05:22:13.329Z,58.00
2023-05-03T05:24:49.364Z,58.10
2023-05-03T05:27:19.522Z,58.10
2023-05-03T05:29:49.630Z,58.00
2023-05-03T05:32:18.862Z,57.90
2023-05-03T05:34:52.933Z,58.00
2023-05-03T05:37:24.758Z,57.90
2023-05-03T05:39:55.296Z,57.50
2023-05-03T05:42:27.826Z,57.10
2023-05-03T05:44:57.726Z,57.00
2023-05-03T05:47:27.527Z,57.10
2023-05-03T05:49:59.553Z,57.30
2023-05-03T05:52:30.689Z,57.30
2023-05-03T05:55:00.254Z,56.90
2023-05-03T05:57:29.985Z,56.70
2023-05-03T05:59:59.631Z,56.50
2023-05-03T06:02:29.436Z,56.40
2023-05-03T06:04:58.817Z,56.20
2023-05-03T06:07:28.067Z,56.00
2023-05-03T06:09:58.904Z,55.90
2023-05-03T06:12:28.340Z,55.80
2023-05-03T06:15:02.712Z,56.10
2023-05-03T06:17:38.121Z,55.90
2023-05-03T06:20:11.918Z,55.20
2023-05-03T06:22:42.397Z,55.40
2023-05-03T06:25:16.993Z,55.50
2023-05-03T06:27:47.893Z,55.60
2023-05-03T06:30:17.166Z,55.50
2023-05-03T06:32:49.234Z,55.10
2023-05-03T06:35:19.637Z,55.30
2023-05-03T06:37:49.579Z,55.00
2023-05-03T06:40:20.445Z,55.00
2023-05-03T06:42:49.475Z,54.00
2023-05-03T06:45:24.202Z,54.20
2023-05-03T06:47:53.244Z,54.30
2023-05-03T06:50:24.390Z,54.50
2023-05-03T06:52:53.399Z,54.70
2023-05-03T06:55:23.844Z,55.10
2023-05-03T06:57:53.778Z,54.90
2023-05-03T07:00:23.628Z,55.00
2023-05-03T07:02:53.036Z,54.60
2023-05-03T07:05:22.623Z,54.30
2023-05-03T07:07:51.879Z,54.30
2023-05-03T07:10:21.395Z,53.90
2023-05-03T07:12:51.954Z,53.60
2023-05-03T07:15:21.310Z,53.30
2023-05-03T07:17:50.926Z,53.70
2023-05-03T07:20:20.674Z,53.90
2023-05-03T07:22:50.021Z,53.50
2023-05-03T07:25:19.312Z,52.60
2023-05-03T07:27:48.658Z,52.80
2023-05-03T07:30:19.915Z,52.40
2023-05-03T07:32:50.818Z,52.20
2023-05-03T07:35:20.434Z,52.60
2023-05-03T07:37:49.741Z,52.90
2023-05-03T07:40:19.255Z,53.00
2023-05-03T07:42:48.420Z,52.90
2023-05-03T07:45:20.916Z,52.80
2023-05-03T07:47:50.385Z,52.60
2023-05-03T07:50:19.778Z,52.60
2023-05-03T07:52:51.867Z,52.30
2023-05-03T07:55:21.482Z,52.30
2023-05-03T07:57:51.168Z,52.00
2023-05-03T08:00:22.481Z,52.00
2023-05-03T08:02:52.055Z,52.10
2023-05-03T08:05:21.778Z,52.10
2023-05-03T08:07:51.397Z,53.00
2023-05-03T08:10:21.479Z,52.80
2023-05-03T08:12:51.214Z,52.50
2023-05-03T08:15:22.210Z,52.60
2023-05-03T08:17:51.719Z,51.90
2023-05-03T08:20:21.735Z,51.60
2023-05-03T08:22:51.404Z,51.50
2023-05-03T08:25:22.862Z,51.70
2023-05-03T08:27:52.389Z,52.10
2023-05-03T08:30:23.140Z,52.10
2023-05-03T08:32:53.110Z,52.10
2023-05-03T08:35:22.837Z,52.00
2023-05-03T08:37:52.057Z,51.50
2023-05-03T08:40:24.030Z,51.40
2023-05-03T08:42:56.303Z,51.10
2023-05-03T08:45:27.312Z,51.50
2023-05-03T08:47:56.855Z,51.50
2023-05-03T08:50:26.929Z,51.80
2023-05-03T08:52:56.092Z,51.90
2023-05-03T08:55:25.047Z,51.50
2023-05-03T08:57:54.560Z,51.60
2023-05-03T09:00:30.602Z,51.40
2023-05-03T09:03:00.021Z,50.30
2023-05-03T09:05:34.250Z,50.10
2023-05-03T09:08:04.849Z,50.40
2023-05-03T09:10:35.194Z,49.50
2023-05-03T09:13:04.767Z,50.20
2023-05-03T09:15:36.160Z,49.70
2023-05-03T09:18:11.020Z,49.30
2023-05-03T09:20:42.373Z,49.00
2023-05-03T09:23:13.253Z,49.60
2023-05-03T09:25:51.261Z,49.10
2023-05-03T09:28:22.358Z,49.60
2023-05-03T09:31:06.072Z,49.80
2023-05-03T09:33:35.284Z,49.30
2023-05-03T09:36:06.574Z,48.90
2023-05-03T09:39:30.111Z,49.00
2023-05-03T09:42:00.225Z,48.80
2023-05-03T09:44:43.834Z,48.30
2023-05-03T09:47:14.416Z,47.70
2023-05-03T09:49:44.593Z,48.60
2023-05-03T09:52:14.008Z,48.50
2023-05-03T09:54:43.793Z,48.40
2023-05-03T09:57:14.974Z,48.50
2023-05-03T09:59:46.985Z,48.10
2023-05-03T10:02:18.922Z,48.40
2023-05-03T10:04:52.644Z,47.70
2023-05-03T10:07:26.992Z,48.70
2023-05-03T10:09:57.116Z,48.30
2023-05-03T10:12:28.245Z,48.00
2023-05-03T10:15:00.352Z,48.80
2023-05-03T10:17:47.197Z,48.60
2023-05-03T10:20:26.932Z,48.60
2023-05-03T10:23:08.988Z,48.70
2023-05-03T10:25:40.031Z,48.20
2023-05-03T10:28:10.803Z,48.30
2023-05-03T10:30:41.342Z,47.90
2023-05-03T10:33:35.021Z,48.00
2023-05-03T10:36:10.452Z,48.00
2023-05-03T10:38:40.068Z,48.00
2023-05-03T10:41:09.059Z,48.30
2023-05-03T10:43:46.135Z,47.30
2023-05-03T10:46:36.557Z,47.20
2023-05-03T10:49:22.149Z,47.00
2023-05-03T10:51:51.975Z,47.40
2023-05-03T10:54:21.508Z,47.50
2023-05-03T10:56:53.017Z,47.50
2023-05-03T10:59:23.425Z,46.00
2023-05-03T11:01:54.112Z,46.10
2023-05-03T11:04:44.760Z,46.20
2023-05-03T11:07:21.568Z,45.80
2023-05-03T11:09:50.625Z,45.30
2023-05-03T11:12:19.626Z,45.80
2023-05-03T11:14:48.725Z,46.20
2023-05-03T11:17:18.058Z,46.00
2023-05-03T11:19:49.107Z,46.10
2023-05-03T11:22:18.251Z,46.50
2023-05-03T11:24:47.415Z,47.00
2023-05-03T11:27:24.424Z,46.70
2023-05-03T11:29:58.438Z,47.00
2023-05-03T11:32:29.921Z,46.10
2023-05-03T11:35:02.810Z,46.00
2023-05-03T11:37:32.688Z,44.90
2023-05-03T11:40:02.354Z,45.90
2023-05-03T11:42:31.784Z,45.60
2023-05-03T11:45:04.246Z,45.50
2023-05-03T11:47:34.064Z,46.00
2023-05-03T11:50:05.066Z,46.10
2023-05-03T11:52:39.576Z,46.00
2023-05-03T11:55:09.256Z,45.90
2023-05-03T11:57:46.254Z,45.80
2023-05-03T12:00:18.110Z,44.70
2023-05-03T12:02:50.357Z,44.70
2023-05-03T12:05:23.575Z,44.90
2023-05-03T12:07:53.687Z,45.40
2023-05-03T12:10:26.833Z,44.60
2023-05-03T12:13:00.061Z,44.30
2023-05-03T12:15:33.378Z,44.00
2023-05-03T12:18:09.560Z,44.40
2023-05-03T12:23:15.616Z,44.60
2023-05-03T12:25:45.438Z,44.20
2023-05-03T12:28:20.459Z,44.80
2023-05-03T12:30:53.261Z,44.70
2023-05-03T12:33:23.387Z,43.60
2023-05-03T12:35:54.857Z,44.10
2023-05-03T12:38:25.270Z,44.10
2023-05-03T12:40:55.427Z,44.40
2023-05-03T12:43:25.021Z,44.50
2023-05-03T12:46:15.096Z,43.90
2023-05-03T12:48:46.494Z,44.00
2023-05-03T12:51:19.905Z,43.50
2023-05-03T12:53:55.307Z,43.70
2023-05-03T12:56:25.575Z,42.50
2023-05-03T13:06:42.254Z,42.90
2023-05-03T13:09:19.207Z,42.70
2023-05-03T13:11:52.274Z,42.70
2023-05-03T13:14:22.117Z,42.80
2023-05-03T13:16:52.003Z,42.90
2023-05-03T13:19:21.299Z,42.70
2023-05-03T13:21:51.874Z,42.20
2023-05-03T13:24:20.972Z,41.90
2023-05-03T13:26:50.239Z,42.50
2023-05-03T13:29:19.240Z,41.20
2023-05-03T13:31:48.444Z,41.10
2023-05-03T13:34:17.556Z,41.80
2023-05-03T13:36:46.428Z,41.50
2023-05-03T13:39:19.647Z,42.20
2023-05-03T13:41:49.268Z,41.50
2023-05-03T13:44:19.293Z,40.60
2023-05-03T13:46:48.304Z,41.20
2023-05-03T13:49:17.589Z,41.10
2023-05-03T13:51:46.733Z,41.30
2023-05-03T13:54:17.281Z,41.30
2023-05-03T13:56:46.422Z,40.60
2023-05-03T13:59:17.419Z,40.80
2023-05-03T14:01:48.202Z,41.20
2023-05-03T14:04:17.489Z,39.90
2023-05-03T14:06:46.798Z,40.40
2023-05-03T14:09:17.613Z,40.60
2023-05-03T14:11:46.777Z,41.10
2023-05-03T14:14:15.918Z,40.80
2023-05-03T14:16:46.925Z,40.90
2023-05-03T14:19:18.020Z,40.00
2023-05-03T14:21:49.520Z,40.40
2023-05-03T14:24:20.352Z,40.10
2023-05-03T14:26:49.924Z,39.60
2023-05-03T14:29:19.325Z,39.70
2023-05-03T14:31:48.644Z,40.50
2023-05-03T14:34:18.047Z,40.60
2023-05-03T14:36:47.148Z,40.40
2023-05-03T14:39:16.663Z,40.10
2023-05-03T14:41:48.149Z,39.60
2023-05-03T14:44:17.547Z,39.90
2023-05-03T14:46:46.956Z,39.80
2023-05-03T14:49:17.541Z,39.60
2023-05-03T14:51:47.047Z,38.70
2023-05-03T14:54:16.306Z,39.00
2023-05-03T14:56:46.814Z,38.40
2023-05-03T14:59:16.044Z,38.40
2023-05-03T15:01:45.371Z,38.70
2023-05-03T15:04:14.877Z,39.00
2023-05-03T15:06:44.157Z,39.30
2023-05-03T15:09:13.499Z,39.10
2023-05-03T15:11:42.829Z,39.00
2023-05-03T15:14:13.844Z,38.60
2023-05-03T15:16:43.206Z,38.90
2023-05-03T15:19:12.614Z,39.30
2023-05-03T15:21:49.394Z,39.20
2023-05-03T15:24:19.435Z,39.10
2023-05-03T15:26:49.175Z,38.70
2023-05-03T15:29:20.469Z,38.50
2023-05-03T15:31:49.643Z,38.40
2023-05-03T15:34:19.302Z,38.10
2023-05-03T15:36:48.578Z,38.50
2023-05-03T15:39:18.016Z,38.20
2023-05-03T15:41:47.244Z,38.40
2023-05-03T15:44:16.495Z,38.60
2023-05-03T15:46:47.321Z,39.30
2023-05-03T15:49:16.682Z,38.70
2023-05-03T15:51:45.760Z,38.80
2023-05-03T15:54:14.893Z,38.10
2023-05-03T15:56:44.284Z,38.20
2023-05-03T15:59:14.944Z,38.30
2023-05-03T16:01:44.298Z,38.30
2023-05-03T16:04:15.727Z,38.40
2023-05-03T16:06:45.013Z,37.70
2023-05-03T16:09:15.878Z,37.70
2023-05-03T16:11:45.043Z,38.10
2023-05-03T16:14:14.349Z,38.00
2023-05-03T16:16:47.102Z,38.00
2023-05-03T16:19:19.008Z,38.10
2023-05-03T16:21:48.181Z,38.10
2023-05-03T16:24:17.264Z,38.40
2023-05-03T16:26:46.536Z,38.50
2023-05-03T16:29:18.094Z,38.70
2023-05-03T16:31:47.463Z,38.80
2023-05-03T16:34:18.470Z,38.90
2023-05-03T16:36:47.676Z,38.80
2023-05-03T16:39:16.666Z,38.80
2023-05-03T16:41:45.987Z,38.90
2023-05-03T16:44:18.577Z,38.70
2023-05-03T16:46:48.747Z,39.00
2023-05-03T16:49:19.446Z,39.10
2023-05-03T16:51:48.780Z,39.20
2023-05-03T16:54:17.964Z,39.10
2023-05-03T16:56:47.255Z,39.20
2023-05-03T16:59:16.843Z,39.30
2023-05-03T17:01:46.209Z,39.10
2023-05-03T17:04:16.298Z,39.30
2023-05-03T17:06:47.236Z,39.40
2023-05-03T17:09:18.162Z,39.50
2023-05-03T17:11:47.389Z,39.60
2023-05-03T17:14:16.486Z,39.60
2023-05-03T17:16:46.893Z,39.40
2023-05-03T17:19:16.127Z,39.30
2023-05-03T17:21:47.073Z,39.40
2023-05-03T17:24:16.464Z,39.40
2023-05-03T17:26:45.565Z,39.70
2023-05-03T17:29:15.062Z,39.80
2023-05-03T17:31:44.116Z,40.00
2023-05-03T17:34:13.808Z,39.90
2023-05-03T17:36:42.940Z,40.00
2023-05-03T17:39:13.749Z,40.10
2023-05-03T17:41:42.881Z,40.30
2023-05-03T17:44:12.656Z,40.30
2023-05-03T17:46:42.016Z,40.30
2023-05-03T17:49:11.855Z,40.50
2023-05-03T17:51:41.195Z,40.60
2023-05-03T17:54:10.869Z,40.60
2023-05-03T17:56:41.696Z,40.50
2023-05-03T17:59:11.037Z,40.60
2023-05-03T18:01:40.346Z,40.80
2023-05-03T18:04:10.033Z,41.00
2023-05-03T18:06:39.052Z,40.90
2023-05-03T18:09:08.351Z,40.90
2023-05-03T18:11:37.514Z,41.10
2023-05-03T18:14:07.984Z,41.70
2023-05-03T18:16:37.317Z,41.10
2023-05-03T18:19:06.599Z,41.40
2023-05-03T18:21:36.182Z,41.40
2023-05-03T18:24:06.747Z,41.40
2023-05-03T18:26:36.016Z,41.70
2023-05-03T18:29:05.301Z,41.70
2023-05-03T18:31:36.589Z,41.70
2023-05-03T18:34:06.413Z,41.80
2023-05-03T18:36:38.153Z,41.80
2023-05-03T18:39:08.742Z,42.10
2023-05-03T18:41:39.127Z,42.20
2023-05-03T18:44:08.260Z,42.10
2023-05-03T18:46:38.554Z,42.10
2023-05-03T18:49:09.821Z,42.30
2023-05-03T18:51:39.011Z,42.30
2023-05-03T18:54:08.232Z,42.50
2023-05-03T18:56:37.652Z,42.40
2023-05-03T18:59:07.051Z,42.60
2023-05-03T19:01:38.456Z,42.50
2023-05-03T19:04:07.939Z,42.70
2023-05-03T19:06:37.202Z,42.70
2023-05-03T19:09:11.843Z,42.90
2023-05-03T19:11:42.773Z,43.10
2023-05-03T19:14:12.372Z,43.20
2023-05-03T19:16:43.099Z,43.30
2023-05-03T19:19:13.621Z,43.40
2023-05-03T19:21:43.847Z,43.50
2023-05-03T19:24:15.075Z,43.50
2023-05-03T19:26:44.578Z,43.60
2023-05-03T19:29:13.799Z,43.70
2023-05-03T19:31:44.853Z,43.70
2023-05-03T19:34:13.922Z,43.70
2023-05-03T19:36:43.165Z,43.80
2023-05-03T19:39:13.520Z,43.90
2023-05-03T19:41:42.968Z,44.00
2023-05-03T19:44:12.363Z,44.10
2023-05-03T19:46:41.625Z,44.40
2023-05-03T19:49:12.862Z,44.80
2023-05-03T19:51:42.113Z,44.30
2023-05-03T19:54:11.496Z,44.40
2023-05-03T19:56:40.690Z,44.70
2023-05-03T19:59:10.556Z,44.70
2023-05-03T20:01:39.649Z,44.60
2023-05-03T20:04:09.419Z,44.70
2023-05-03T20:06:40.524Z,44.90
2023-05-03T20:09:09.571Z,45.00
2023-05-03T20:11:38.732Z,45.10
2023-05-03T20:14:08.535Z,45.20
2023-05-03T20:16:57.232Z,45.90
2023-05-03T20:20:07.012Z,45.30
2023-05-03T20:22:57.191Z,45.80
2023-05-03T20:25:26.708Z,45.60
2023-05-03T20:27:56.159Z,45.70
2023-05-03T20:30:25.932Z,46.10
2023-05-03T20:32:55.273Z,46.50
2023-05-03T20:35:24.404Z,46.20
2023-05-03T20:37:53.618Z,46.30
2023-05-03T20:40:24.496Z,46.50
2023-05-03T20:42:53.937Z,46.60
2023-05-03T20:45:23.131Z,46.60
2023-05-03T20:47:52.415Z,46.50
2023-05-03T20:50:21.880Z,47.00
2023-05-03T20:52:51.114Z,47.00
2023-05-03T20:55:20.486Z,46.70
2023-05-03T20:57:51.063Z,46.70
2023-05-03T21:00:22.167Z,46.90
2023-05-03T21:02:53.707Z,47.50
2023-05-03T21:05:23.135Z,47.80
2023-05-03T21:07:53.003Z,47.40
2023-05-03T21:10:22.127Z,47.50
2023-05-03T21:12:52.706Z,47.60
2023-05-03T21:15:22.153Z,47.70
2023-05-03T21:17:51.393Z,47.80
2023-05-03T21:20:20.827Z,47.80
2023-05-03T21:22:49.966Z,48.00
2023-05-03T21:25:19.684Z,47.90
2023-05-03T21:27:48.779Z,48.10
2023-05-03T21:30:20.523Z,48.40
2023-05-03T21:32:50.276Z,48.60
2023-05-03T21:35:20.254Z,48.90
2023-05-03T21:37:49.973Z,49.20
2023-05-03T21:40:21.597Z,49.30
2023-05-03T21:42:52.170Z,49.20
2023-05-03T21:45:23.218Z,49.20
2023-05-03T21:47:52.649Z,49.80
2023-05-03T21:50:23.493Z,49.50
2023-05-03T21:52:52.868Z,49.70
2023-05-03T21:55:22.210Z,49.80
2023-05-03T21:57:51.707Z,50.00
2023-05-03T22:00:22.443Z,50.20
2023-05-03T22:02:51.770Z,50.20
2023-05-03T22:05:20.847Z,50.20
2023-05-03T22:07:50.606Z,50.40
2023-05-03T22:10:19.982Z,50.50
2023-05-03T22:12:48.919Z,50.70
2023-05-03T22:15:18.156Z,50.90
2023-05-03T22:17:48.809Z,51.00
2023-05-03T22:20:17.987Z,51.10
2023-05-03T22:22:47.190Z,51.10
2023-05-03T22:25:23.842Z,51.10
2023-05-03T22:27:53.579Z,51.30
2023-05-03T22:30:23.683Z,51.20
2023-05-03T22:32:54.202Z,51.30
2023-05-03T22:35:23.586Z,51.40
2023-05-03T22:37:52.810Z,51.40
2023-05-03T22:40:22.084Z,51.50
2023-05-03T22:42:51.104Z,51.60
2023-05-03T22:45:20.579Z,51.60
2023-05-03T22:47:50.053Z,51.70
2023-05-03T22:50:21.303Z,52.30
2023-05-03T22:52:50.481Z,51.80
2023-05-03T22:55:19.826Z,51.80
2023-05-03T22:57:48.859Z,51.90
2023-05-03T23:00:18.073Z,51.90
2023-05-03T23:02:47.308Z,52.00
2023-05-03T23:05:16.776Z,52.10
2023-05-03T23:07:47.411Z,52.00
2023-05-03T23:10:16.822Z,52.10
2023-05-03T23:12:45.926Z,52.10
2023-05-03T23:15:15.483Z,52.20
2023-05-03T23:17:44.657Z,52.30
2023-05-03T23:20:14.355Z,52.50
2023-05-03T23:22:43.765Z,52.60
2023-05-03T23:25:16.107Z,52.60
2023-05-03T23:27:45.260Z,52.70
2023-05-03T23:30:15.447Z,52.60
2023-05-03T23:32:46.524Z,52.80
2023-05-03T23:35:16.321Z,52.90
2023-05-03T23:37:45.134Z,53.00
2023-05-03T23:40:16.158Z,53.10
2023-05-03T23:42:46.359Z,53.20
2023-05-03T23:45:15.395Z,53.20
2023-05-03T23:47:45.546Z,53.20
2023-05-03T23:50:14.780Z,53.10
2023-05-03T23:52:44.115Z,53.20
2023-05-03T23:55:15.054Z,53.20
2023-05-03T23:57:44.381Z,53.30
